createdAt,value
2022-12-28T00:03:33.353Z,3.66
2022-12-28T00:08:35.400Z,3.55
2022-12-28T00:13:37.002Z,3.61
2022-12-28T00:18:38.676Z,3.60
2022-12-28T00:23:40.318Z,3.56
2022-12-28T00:28:41.922Z,3.64
2022-12-28T00:33:44.308Z,3.75
2022-12-28T00:38:47.731Z,3.67
2022-12-28T00:43:49.252Z,3.76
2022-12-28T00:48:50.803Z,3.84
2022-12-28T00:53:52.422Z,3.95
2022-12-28T00:58:58.170Z,3.97
2022-12-28T01:03:59.818Z,4.08
2022-12-28T01:09:01.376Z,3.68
2022-12-28T01:14:03.742Z,3.45
2022-12-28T01:19:07.049Z,3.32
2022-12-28T01:24:09.779Z,3.10
2022-12-28T01:29:11.334Z,2.97
2022-12-28T01:34:12.889Z,2.81
2022-12-28T01:39:14.429Z,2.64
2022-12-28T01:44:15.897Z,2.51
2022-12-28T01:49:30.207Z,2.42
2022-12-28T01:54:36.474Z,2.54
2022-12-28T01:59:40.991Z,2.35
2022-12-28T02:04:42.967Z,2.37
2022-12-28T02:09:44.857Z,2.33
2022-12-28T02:15:06.592Z,2.12
2022-12-28T02:20:09.017Z,1.77
2022-12-28T02:25:14.460Z,1.78
2022-12-28T02:30:16.877Z,1.55
2022-12-28T02:35:36.968Z,1.69
2022-12-28T02:40:41.546Z,1.58
2022-12-28T02:46:03.364Z,1.25
2022-12-28T02:51:13.875Z,1.21
2022-12-28T02:56:31.481Z,1.50
2022-12-28T03:01:43.271Z,1.42
2022-12-28T03:07:19.708Z,1.33
2022-12-28T03:12:39.313Z,1.21
2022-12-28T03:18:01.738Z,1.18
2022-12-28T03:23:25.715Z,1.05
2022-12-28T03:28:48.095Z,0.97
2022-12-28T03:33:51.216Z,0.90
2022-12-28T03:39:09.397Z,0.91
2022-12-28T03:44:21.162Z,0.89
2022-12-28T03:49:27.547Z,0.83
2022-12-28T03:54:30.708Z,0.97
2022-12-28T03:59:33.204Z,1.27
2022-12-28T04:04:36.608Z,2.06
2022-12-28T04:09:38.326Z,2.71
2022-12-28T04:14:41.280Z,2.92
2022-12-28T04:19:45.813Z,2.96
2022-12-28T04:24:47.577Z,3.04
2022-12-28T04:29:49.599Z,3.31
2022-12-28T04:34:55.264Z,3.21
2022-12-28T04:40:13.041Z,3.50
2022-12-28T04:45:38.328Z,3.77
2022-12-28T04:50:57.207Z,3.65
2022-12-28T04:56:18.139Z,3.49
2022-12-28T05:01:56.474Z,2.95
2022-12-28T05:06:58.836Z,2.84
2022-12-28T05:12:00.711Z,3.17
2022-12-28T05:17:05.233Z,2.88
2022-12-28T05:22:34.027Z,2.69
2022-12-28T05:31:26.637Z,2.82
2022-12-28T05:34:13.099Z,3.22
2022-12-28T05:45:52.054Z,3.64
2022-12-28T05:51:24.379Z,3.69
2022-12-28T05:57:01.862Z,3.56
2022-12-28T06:14:33.276Z,3.43
2022-12-28T06:20:07.008Z,3.56
2022-12-28T06:25:23.736Z,3.94
2022-12-28T06:30:52.949Z,4.09
2022-12-28T06:35:55.200Z,4.16
2022-12-28T06:41:17.060Z,4.11
2022-12-28T06:46:19.774Z,4.48
2022-12-28T06:51:25.810Z,4.58
2022-12-28T06:56:28.974Z,4.79
2022-12-28T07:01:38.527Z,5.01
2022-12-28T07:06:41.337Z,5.05
2022-12-28T07:11:43.392Z,5.05
2022-12-28T07:16:45.143Z,5.22
2022-12-28T07:21:49.550Z,5.32
2022-12-28T07:26:53.910Z,5.32
2022-12-28T07:31:55.448Z,5.40
2022-12-28T07:36:58.386Z,5.24
2022-12-28T07:41:59.883Z,5.33
2022-12-28T07:47:02.530Z,5.17
2022-12-28T07:52:07.004Z,5.13
2022-12-28T07:57:13.936Z,5.24
2022-12-28T08:02:15.968Z,5.28
2022-12-28T08:07:17.770Z,5.48
2022-12-28T08:12:39.277Z,5.18
2022-12-28T08:17:40.798Z,5.57
2022-12-28T08:22:42.235Z,5.75
2022-12-28T08:27:43.699Z,5.88
2022-12-28T08:32:45.211Z,5.90
2022-12-28T08:37:46.902Z,5.83
2022-12-28T08:42:48.354Z,6.09
2022-12-28T08:47:50.004Z,6.13
2022-12-28T08:52:51.553Z,6.31
2022-12-28T08:57:53.106Z,6.53
2022-12-28T09:02:55.857Z,6.71
2022-12-28T09:07:59.754Z,6.70
2022-12-28T09:13:01.423Z,7.03
2022-12-28T09:18:03.012Z,7.11
2022-12-28T09:23:04.507Z,7.42
2022-12-28T09:28:06.174Z,7.33
2022-12-28T09:33:26.318Z,7.67
2022-12-28T09:38:27.832Z,7.93
2022-12-28T09:43:29.731Z,8.02
2022-12-28T09:48:31.447Z,8.11
2022-12-28T09:53:34.361Z,8.25
2022-12-28T09:58:37.871Z,8.20
2022-12-28T10:03:40.835Z,8.33
2022-12-28T10:08:46.768Z,8.39
2022-12-28T10:13:55.259Z,8.28
2022-12-28T10:18:57.627Z,8.35
2022-12-28T10:29:22.643Z,8.52
2022-12-28T10:34:25.127Z,8.59
2022-12-28T10:39:30.632Z,8.64
2022-12-28T10:44:41.535Z,8.66
2022-12-28T10:50:10.025Z,8.78
2022-12-28T10:55:36.646Z,8.81
2022-12-28T11:00:38.385Z,8.88
2022-12-28T11:05:41.278Z,8.87
2022-12-28T11:10:42.873Z,8.96
2022-12-28T11:15:44.554Z,8.96
2022-12-28T11:20:48.322Z,8.77
2022-12-28T11:25:50.093Z,8.99
2022-12-28T11:30:51.919Z,9.07
2022-12-28T11:35:59.411Z,9.25
2022-12-28T11:41:01.425Z,9.26
2022-12-28T11:46:04.136Z,9.37
2022-12-28T11:51:06.286Z,9.43
2022-12-28T11:56:09.494Z,9.29
2022-12-28T12:01:33.553Z,9.36
2022-12-28T12:06:58.372Z,9.31
2022-12-28T12:12:23.128Z,9.37
2022-12-28T12:17:43.250Z,9.19
2022-12-28T12:22:48.730Z,9.22
2022-12-28T12:28:09.939Z,9.07
2022-12-28T12:33:14.887Z,9.04
2022-12-28T12:38:22.464Z,9.13
2022-12-28T12:43:36.607Z,9.07
2022-12-28T12:48:47.665Z,9.09
2022-12-28T12:54:00.390Z,9.07
2022-12-28T12:59:20.581Z,9.03
2022-12-28T13:04:24.027Z,9.00
2022-12-28T13:09:28.133Z,9.17
2022-12-28T13:14:29.812Z,9.19
2022-12-28T13:19:31.300Z,9.33
2022-12-28T13:24:39.132Z,9.30
2022-12-28T13:29:41.288Z,9.28
2022-12-28T13:34:49.129Z,9.17
2022-12-28T13:39:50.732Z,9.29
2022-12-28T13:45:01.700Z,9.32
2022-12-28T13:50:03.636Z,9.23
2022-12-28T13:55:27.123Z,9.38
2022-12-28T14:00:30.644Z,9.20
2022-12-28T14:05:32.236Z,9.30
2022-12-28T14:10:34.002Z,9.25
2022-12-28T14:15:41.101Z,9.10
2022-12-28T14:20:50.110Z,9.01
2022-12-28T14:25:52.842Z,9.01
2022-12-28T14:30:55.386Z,9.12
2022-12-28T14:35:59.379Z,9.01
2022-12-28T14:41:02.013Z,9.06
2022-12-28T14:46:28.909Z,8.90
2022-12-28T14:51:35.170Z,8.98
2022-12-28T14:56:39.364Z,8.78
2022-12-28T15:01:42.070Z,8.86
2022-12-28T15:06:43.714Z,8.78
2022-12-28T15:11:46.059Z,8.54
2022-12-28T15:16:47.756Z,8.34
2022-12-28T15:21:49.379Z,8.27
2022-12-28T15:26:50.951Z,8.37
2022-12-28T15:31:52.686Z,8.46
2022-12-28T15:36:54.388Z,8.40
2022-12-28T15:41:55.970Z,8.41
2022-12-28T15:46:57.618Z,8.52
2022-12-28T15:51:59.803Z,8.66
2022-12-28T15:57:01.444Z,8.48
2022-12-28T16:02:03.112Z,8.44
2022-12-28T16:07:04.779Z,8.32
2022-12-28T16:12:06.301Z,8.18
2022-12-28T16:17:07.978Z,8.12
2022-12-28T16:22:09.563Z,8.31
2022-12-28T16:27:11.575Z,8.36
2022-12-28T16:32:13.191Z,8.30
2022-12-28T16:37:14.961Z,8.35
2022-12-28T16:42:16.499Z,8.00
2022-12-28T16:47:19.570Z,8.04
2022-12-28T16:52:21.076Z,8.02
2022-12-28T16:57:22.637Z,7.91
2022-12-28T17:02:24.372Z,7.86
2022-12-28T17:07:26.034Z,7.70
2022-12-28T17:12:27.694Z,7.67
2022-12-28T17:17:29.487Z,7.67
2022-12-28T17:22:31.140Z,7.68
2022-12-28T17:27:33.014Z,7.65
2022-12-28T17:32:34.577Z,7.76
2022-12-28T17:37:36.366Z,7.71
2022-12-28T17:42:38.043Z,7.68
2022-12-28T17:47:39.599Z,7.94
2022-12-28T17:52:41.846Z,8.11
2022-12-28T17:57:43.521Z,7.98
2022-12-28T18:02:46.662Z,7.98
2022-12-28T18:07:48.535Z,8.24
2022-12-28T18:12:50.525Z,8.13
2022-12-28T18:17:52.003Z,8.35
2022-12-28T18:22:53.664Z,8.27
2022-12-28T18:27:55.167Z,8.19
2022-12-28T18:32:56.783Z,8.26
2022-12-28T18:37:58.310Z,8.18
2022-12-28T18:42:59.827Z,7.98
2022-12-28T18:48:01.290Z,8.10
2022-12-28T18:53:02.756Z,8.04
2022-12-28T18:58:04.250Z,8.11
2022-12-28T19:03:05.993Z,7.99
2022-12-28T19:08:07.628Z,7.81
2022-12-28T19:13:09.149Z,7.89
2022-12-28T19:18:10.705Z,7.80
2022-12-28T19:23:12.354Z,7.84
2022-12-28T19:28:13.897Z,7.65
2022-12-28T19:33:15.514Z,7.47
2022-12-28T19:38:17.042Z,7.66
2022-12-28T19:43:18.554Z,7.52
2022-12-28T19:48:20.056Z,7.65
2022-12-28T19:53:21.665Z,7.63
2022-12-28T19:58:25.468Z,7.66
2022-12-28T20:03:27.112Z,7.79
2022-12-28T20:08:28.745Z,7.85
2022-12-28T20:13:30.891Z,7.94
2022-12-28T20:18:32.438Z,7.98
2022-12-28T20:23:35.667Z,8.06
2022-12-28T20:28:37.321Z,7.95
2022-12-28T20:33:39.350Z,8.15
2022-12-28T20:38:41.229Z,8.35
2022-12-28T20:43:42.691Z,8.44
2022-12-28T20:48:44.172Z,8.42
2022-12-28T20:53:45.682Z,8.54
2022-12-28T20:58:47.205Z,8.40
2022-12-28T21:03:48.937Z,8.55
2022-12-28T21:08:50.577Z,8.73
2022-12-28T21:13:52.123Z,8.69
2022-12-28T21:18:53.618Z,8.48
2022-12-28T21:23:55.242Z,8.88
2022-12-28T21:28:56.817Z,8.82
2022-12-28T21:33:59.399Z,8.70
2022-12-28T21:39:01.184Z,8.68
2022-12-28T21:44:02.904Z,8.86
2022-12-28T21:49:04.846Z,8.91
2022-12-28T21:54:17.444Z,8.68
2022-12-28T21:59:19.471Z,8.51
2022-12-28T22:04:40.314Z,8.45
2022-12-28T22:10:00.651Z,8.46
2022-12-28T22:15:24.089Z,8.56
2022-12-28T22:20:26.023Z,8.67
2022-12-28T22:25:28.872Z,8.91
2022-12-28T22:30:31.132Z,8.86
2022-12-28T22:35:33.301Z,8.99
2022-12-28T22:40:34.916Z,8.77
2022-12-28T22:45:36.659Z,8.70
2022-12-28T22:50:43.014Z,8.62
2022-12-28T22:55:44.873Z,8.48
2022-12-28T23:00:46.455Z,8.64
2022-12-28T23:05:52.130Z,8.69
2022-12-28T23:10:54.773Z,8.57
2022-12-28T23:15:57.013Z,8.71
2022-12-28T23:21:16.957Z,8.80
2022-12-28T23:26:37.216Z,8.78
2022-12-28T23:31:38.859Z,8.81
2022-12-28T23:36:40.447Z,8.82
2022-12-28T23:41:48.107Z,8.81
2022-12-28T23:46:53.918Z,8.90
2022-12-28T23:52:00.035Z,8.76
2022-12-28T23:57:01.806Z,8.80
